createdAt,value
2023-03-05T00:01:33.185Z,100884.53
2023-03-05T00:04:03.039Z,100885.47
2023-03-05T00:06:32.227Z,100897.34
2023-03-05T00:09:01.283Z,100890.78
2023-03-05T00:11:31.842Z,100888.81
2023-03-05T00:14:01.514Z,100878.72
2023-03-05T00:16:30.322Z,100877.91
2023-03-05T00:19:02.083Z,100873.47
2023-03-05T00:21:32.419Z,100870.97
2023-03-05T00:24:03.209Z,100867.72
2023-03-05T00:26:34.536Z,100864.16
2023-03-05T00:29:03.137Z,100864.91
2023-03-05T00:31:33.970Z,100851.69
2023-03-05T00:34:04.982Z,100859.56
2023-03-05T00:36:33.861Z,100848.22
2023-03-05T00:39:02.144Z,100848.59
2023-03-05T00:41:30.273Z,100846.78
2023-03-05T00:44:00.009Z,100840.63
2023-03-05T00:46:29.118Z,100831.72
2023-03-05T00:48:57.922Z,100827.50
2023-03-05T00:51:27.408Z,100831.09
2023-03-05T00:53:56.471Z,100821.34
2023-03-05T00:56:24.774Z,100822.31
2023-03-05T00:58:53.273Z,100817.75
2023-03-05T01:01:23.135Z,100812.53
2023-03-05T01:03:51.508Z,100811.06
2023-03-05T01:06:20.103Z,100809.22
2023-03-05T01:08:48.347Z,100791.69
2023-03-05T01:11:16.505Z,100788.88
2023-03-05T01:13:44.825Z,100793.53
2023-03-05T01:16:13.382Z,100789.56
2023-03-05T01:18:43.065Z,100784.69
2023-03-05T01:21:11.527Z,100783.75
2023-03-05T01:23:39.675Z,100781.16
2023-03-05T01:26:12.720Z,100780.25
2023-03-05T01:28:40.991Z,100773.38
2023-03-05T01:31:10.075Z,100767.34
2023-03-05T01:33:38.639Z,100754.84
2023-03-05T01:36:14.886Z,100756.47
2023-03-05T01:38:43.375Z,100756.53
2023-03-05T01:41:13.236Z,100756.47
2023-03-05T01:43:42.006Z,100756.41
2023-03-05T01:46:26.333Z,100752.69
2023-03-05T01:48:59.569Z,100740.94
2023-03-05T01:51:32.605Z,100737.56
2023-03-05T01:54:01.789Z,100727.25
2023-03-05T01:56:30.888Z,100731.31
2023-03-05T01:59:03.713Z,100733.75
2023-03-05T02:01:35.184Z,100721.56
2023-03-05T02:04:03.516Z,100727.72
2023-03-05T02:06:33.228Z,100720.97
2023-03-05T02:09:01.398Z,100716.47
2023-03-05T02:11:30.322Z,100706.47
2023-03-05T02:13:59.475Z,100699.38
2023-03-05T02:16:29.196Z,100701.03
2023-03-05T02:18:57.863Z,100686.41
2023-03-05T02:21:36.727Z,100695.22
2023-03-05T02:24:05.401Z,100694.19
2023-03-05T02:26:33.861Z,100692.50
2023-03-05T02:29:04.014Z,100686.47
2023-03-05T02:31:32.223Z,100688.34
2023-03-05T02:34:02.069Z,100677.50
2023-03-05T02:36:32.180Z,100689.50
2023-03-05T02:39:00.491Z,100680.25
2023-03-05T02:41:28.876Z,100677.53
2023-03-05T02:43:59.349Z,100671.44
2023-03-05T02:46:27.641Z,100677.53
2023-03-05T02:48:55.758Z,100675.84
2023-03-05T02:51:24.118Z,100667.31
2023-03-05T02:53:53.809Z,100673.47
2023-03-05T02:56:23.781Z,100658.22
2023-03-05T02:58:52.048Z,100670.28
2023-03-05T03:01:20.273Z,100661.81
2023-03-05T03:03:48.582Z,100655.81
2023-03-05T03:06:16.713Z,100658.28
2023-03-05T03:08:44.818Z,100652.69
2023-03-05T03:11:14.733Z,100655.09
2023-03-05T03:13:42.964Z,100651.59
2023-03-05T03:16:15.319Z,100651.00
2023-03-05T03:18:44.100Z,100651.09
2023-03-05T03:21:18.048Z,100645.09
2023-03-05T03:23:46.229Z,100645.28
2023-03-05T03:26:15.689Z,100645.50
2023-03-05T03:28:44.436Z,100644.69
2023-03-05T03:31:12.954Z,100640.25
2023-03-05T03:33:41.314Z,100643.50
2023-03-05T03:36:10.124Z,100632.22
2023-03-05T03:38:38.345Z,100634.09
2023-03-05T03:41:07.301Z,100635.03
2023-03-05T03:43:36.872Z,100635.88
2023-03-05T03:46:06.308Z,100626.06
2023-03-05T03:48:35.922Z,100623.16
2023-03-05T03:51:06.660Z,100620.19
2023-03-05T03:53:34.932Z,100625.41
2023-03-05T03:56:03.462Z,100614.63
2023-03-05T03:58:31.620Z,100612.22
2023-03-05T04:01:01.380Z,100606.16
2023-03-05T04:03:29.543Z,100612.22
2023-03-05T04:05:57.743Z,100611.38
2023-03-05T04:08:25.908Z,100611.53
2023-03-05T04:10:54.058Z,100617.53
2023-03-05T04:13:22.213Z,100605.19
2023-03-05T04:15:50.518Z,100610.56
2023-03-05T04:18:20.072Z,100601.00
2023-03-05T04:20:48.194Z,100595.59
2023-03-05T04:23:16.446Z,100596.50
2023-03-05T04:25:45.021Z,100600.31
2023-03-05T04:28:13.260Z,100597.72
2023-03-05T04:30:41.610Z,100588.00
2023-03-05T04:33:09.751Z,100592.97
2023-03-05T04:35:39.283Z,100583.59
2023-03-05T04:38:07.945Z,100595.00
2023-03-05T04:40:36.621Z,100588.88
2023-03-05T04:43:05.109Z,100582.59
2023-03-05T04:45:34.157Z,100576.44
2023-03-05T04:48:02.426Z,100584.25
2023-03-05T04:50:30.658Z,100584.25
2023-03-05T04:53:00.559Z,100578.25
2023-03-05T04:55:28.945Z,100577.28
2023-03-05T04:57:57.207Z,100580.72
2023-03-05T05:00:25.553Z,100573.84
2023-03-05T05:02:54.168Z,100578.19
2023-03-05T05:05:25.163Z,100587.56
2023-03-05T05:07:55.539Z,100577.22
2023-03-05T05:10:25.443Z,100584.00
2023-03-05T05:12:53.584Z,100581.41
2023-03-05T05:15:21.976Z,100580.56
2023-03-05T05:17:50.252Z,100588.44
2023-03-05T05:20:18.599Z,100584.19
2023-03-05T05:22:46.708Z,100585.22
2023-03-05T05:25:14.840Z,100579.84
2023-03-05T05:27:44.337Z,100591.16
2023-03-05T05:30:13.461Z,100582.44
2023-03-05T05:32:41.676Z,100587.44
2023-03-05T05:35:11.667Z,100584.84
2023-03-05T05:37:39.916Z,100576.44
2023-03-05T05:40:09.579Z,100578.91
2023-03-05T05:42:38.087Z,100579.88
2023-03-05T05:45:09.192Z,100591.03
2023-03-05T05:47:37.446Z,100588.34
2023-03-05T05:50:07.782Z,100592.69
2023-03-05T05:52:35.954Z,100588.34
2023-03-05T05:55:04.810Z,100583.28
2023-03-05T05:57:33.101Z,100595.56
2023-03-05T06:00:01.245Z,100589.34
2023-03-05T06:02:41.496Z,100588.53
2023-03-05T06:05:12.861Z,100589.53
2023-03-05T06:07:41.420Z,100595.56
2023-03-05T06:10:11.353Z,100594.59
2023-03-05T06:12:39.504Z,100600.94
2023-03-05T06:15:08.753Z,100593.66
2023-03-05T06:17:36.892Z,100601.66
2023-03-05T06:20:07.860Z,100589.34
2023-03-05T06:22:37.521Z,100583.44
2023-03-05T06:25:06.686Z,100585.84
2023-03-05T06:27:36.126Z,100585.06
2023-03-05T06:30:05.651Z,100586.78
2023-03-05T06:32:33.905Z,100581.66
2023-03-05T06:35:02.055Z,100593.66
2023-03-05T06:37:31.636Z,100582.53
2023-03-05T06:40:00.062Z,100579.63
2023-03-05T06:42:28.219Z,100576.06
2023-03-05T06:44:56.354Z,100576.78
2023-03-05T06:47:25.003Z,100585.41
2023-03-05T06:49:53.143Z,100579.47
2023-03-05T06:52:21.258Z,100578.56
2023-03-05T06:54:51.123Z,100579.50
2023-03-05T06:57:19.580Z,100576.78
2023-03-05T06:59:48.041Z,100581.16
2023-03-05T07:02:16.194Z,100581.75
2023-03-05T07:04:44.351Z,100574.00
2023-03-05T07:07:12.488Z,100567.56
2023-03-05T07:09:42.981Z,100581.63
2023-03-05T07:12:12.874Z,100579.03
2023-03-05T07:14:40.991Z,100594.50
2023-03-05T07:17:09.294Z,100583.94
2023-03-05T07:19:38.833Z,100584.03
2023-03-05T07:22:08.149Z,100581.31
2023-03-05T07:24:36.392Z,100588.91
2023-03-05T07:27:04.736Z,100581.88
2023-03-05T07:29:34.197Z,100588.91
2023-03-05T07:32:02.406Z,100584.47
2023-03-05T07:34:30.581Z,100590.63
2023-03-05T07:36:58.718Z,100586.06
2023-03-05T07:39:27.023Z,100584.16
2023-03-05T07:41:55.270Z,100574.69
2023-03-05T07:44:30.136Z,100580.38
2023-03-05T07:46:59.628Z,100587.78
2023-03-05T07:49:27.935Z,100597.38
2023-03-05T07:51:56.053Z,100586.56
2023-03-05T07:54:24.759Z,100586.44
2023-03-05T07:56:56.043Z,100587.41
2023-03-05T07:59:24.225Z,100577.50
2023-03-05T08:01:52.666Z,100575.16
2023-03-05T08:04:22.316Z,100572.34
2023-03-05T08:06:51.574Z,100568.97
2023-03-05T08:09:20.376Z,100567.78
2023-03-05T08:11:48.503Z,100554.75
2023-03-05T08:14:17.055Z,100561.56
2023-03-05T08:16:48.324Z,100558.56
2023-03-05T08:19:16.677Z,100560.84
2023-03-05T08:21:47.040Z,100548.41
2023-03-05T08:24:15.488Z,100555.91
2023-03-05T08:26:44.040Z,100542.13
2023-03-05T08:29:12.424Z,100547.34
2023-03-05T08:31:46.144Z,100541.97
2023-03-05T08:34:15.340Z,100543.66
2023-03-05T08:36:43.522Z,100536.53
2023-03-05T08:39:12.971Z,100539.09
2023-03-05T08:41:41.375Z,100544.56
2023-03-05T08:44:09.526Z,100532.16
2023-03-05T08:46:39.843Z,100533.09
2023-03-05T08:49:08.590Z,100535.94
2023-03-05T08:51:36.964Z,100537.25
2023-03-05T08:54:07.509Z,100533.16
2023-03-05T08:56:37.738Z,100540.84
2023-03-05T08:59:06.127Z,100537.81
2023-03-05T09:01:34.412Z,100531.81
2023-03-05T09:04:03.908Z,100530.66
2023-03-05T09:06:32.069Z,100542.81
2023-03-05T09:09:00.213Z,100531.53
2023-03-05T09:11:28.363Z,100534.97
2023-03-05T09:13:57.815Z,100527.94
2023-03-05T09:16:26.010Z,100525.50
2023-03-05T09:18:54.187Z,100534.31
2023-03-05T09:21:22.383Z,100533.69
2023-03-05T09:23:50.554Z,100535.09
2023-03-05T09:26:20.564Z,100539.47
2023-03-05T09:28:49.319Z,100534.97
2023-03-05T09:31:19.448Z,100538.22
2023-03-05T09:33:49.062Z,100535.94
2023-03-05T09:36:20.136Z,100536.25
2023-03-05T09:38:48.475Z,100541.91
2023-03-05T09:41:22.712Z,100538.19
2023-03-05T09:44:00.344Z,100538.28
2023-03-05T09:46:41.957Z,100536.81
2023-03-05T09:49:18.780Z,100536.19
2023-03-05T09:51:51.352Z,100536.28
2023-03-05T09:54:24.189Z,100534.75
2023-03-05T09:56:56.913Z,100533.22
2023-03-05T09:59:35.890Z,100535.63
2023-03-05T10:02:17.456Z,100539.13
2023-03-05T10:04:49.873Z,100540.03
2023-03-05T10:07:22.227Z,100549.81
2023-03-05T10:09:55.879Z,100547.44
2023-03-05T10:12:28.652Z,100545.16
2023-03-05T10:14:57.259Z,100550.59
2023-03-05T10:17:52.756Z,100560.22
2023-03-05T10:20:36.217Z,100559.13
2023-03-05T10:23:24.604Z,100550.09
2023-03-05T10:26:00.654Z,100549.53
2023-03-05T10:28:36.203Z,100547.84
2023-03-05T10:31:26.190Z,100541.09
2023-03-05T10:34:05.693Z,100545.16
2023-03-05T10:36:50.843Z,100531.47
2023-03-05T10:39:52.780Z,100530.44
2023-03-05T10:42:31.177Z,100522.44
2023-03-05T10:45:02.064Z,100509.50
2023-03-05T10:47:37.417Z,100508.19
2023-03-05T10:50:17.997Z,100506.44
2023-03-05T10:52:51.192Z,100503.34
2023-03-05T10:55:21.371Z,100497.72
2023-03-05T10:57:49.727Z,100503.19
2023-03-05T11:00:20.377Z,100485.59
2023-03-05T11:02:58.617Z,100477.41
2023-03-05T11:05:51.685Z,100468.97
2023-03-05T11:08:37.743Z,100482.84
2023-03-05T11:11:17.755Z,100474.66
2023-03-05T11:13:54.514Z,100473.09
2023-03-05T11:16:25.600Z,100453.22
2023-03-05T11:19:18.503Z,100453.78
2023-03-05T11:22:05.485Z,100445.22
2023-03-05T11:24:34.843Z,100452.47
2023-03-05T11:27:03.134Z,100450.47
2023-03-05T11:29:33.441Z,100450.16
2023-03-05T11:32:17.802Z,100451.09
2023-03-05T11:34:46.055Z,100443.31
2023-03-05T11:37:25.696Z,100448.25
2023-03-05T11:40:19.019Z,100441.38
2023-03-05T11:42:55.110Z,100444.47
2023-03-05T11:45:25.893Z,100441.47
2023-03-05T11:47:57.204Z,100423.84
2023-03-05T11:50:27.979Z,100429.13
2023-03-05T11:58:47.826Z,100389.53
2023-03-05T12:01:19.255Z,100387.88
2023-03-05T12:03:48.165Z,100386.97
2023-03-05T12:11:53.256Z,100362.69
2023-03-05T12:17:29.768Z,100371.69
2023-03-05T12:20:04.898Z,100369.16
2023-03-05T12:22:37.538Z,100366.97
2023-03-05T12:25:27.027Z,100401.66
2023-03-05T12:27:55.942Z,100425.84
2023-03-05T12:30:59.459Z,100431.25
2023-03-05T12:33:35.352Z,100438.38
2023-03-05T12:36:39.643Z,100440.94
2023-03-05T12:39:49.556Z,100427.16
2023-03-05T12:42:56.390Z,100435.50
2023-03-05T12:45:38.674Z,100437.75
2023-03-05T12:48:43.636Z,100435.94
2023-03-05T12:51:28.093Z,100423.34
2023-03-05T12:53:57.168Z,100425.81
2023-03-05T12:56:30.862Z,100430.69
2023-03-05T12:59:02.717Z,100432.38
2023-03-05T13:01:37.210Z,100423.53
2023-03-05T13:04:14.592Z,100425.56
2023-03-05T13:06:42.749Z,100421.25
2023-03-05T13:09:18.284Z,100417.28
2023-03-05T13:11:49.862Z,100420.19
2023-03-05T13:14:29.972Z,100419.09
2023-03-05T13:16:58.220Z,100420.09
2023-03-05T13:19:28.511Z,100419.00
2023-03-05T13:22:01.344Z,100417.81
2023-03-05T13:24:30.249Z,100410.94
2023-03-05T13:26:58.933Z,100409.63
2023-03-05T13:29:30.463Z,100416.19
2023-03-05T13:32:01.538Z,100412.91
2023-03-05T13:34:46.160Z,100423.94
2023-03-05T13:37:19.619Z,100431.72
2023-03-05T13:39:50.973Z,100427.00
2023-03-05T13:42:21.355Z,100422.31
2023-03-05T13:44:55.701Z,100432.78
2023-03-05T13:47:28.503Z,100422.97
2023-03-05T13:50:00.054Z,100423.06
2023-03-05T13:52:31.628Z,100419.38
2023-03-05T13:55:00.966Z,100407.94
2023-03-05T13:57:39.924Z,100404.72
2023-03-05T14:00:27.821Z,100407.53
2023-03-05T14:02:59.727Z,100396.53
2023-03-05T14:05:30.956Z,100395.38
2023-03-05T14:07:59.619Z,100398.03
2023-03-05T14:10:35.276Z,100396.03
2023-03-05T14:13:06.730Z,100386.88
2023-03-05T14:15:36.459Z,100379.47
2023-03-05T14:18:20.281Z,100381.44
2023-03-05T14:21:08.935Z,100372.84
2023-03-05T14:23:40.578Z,100378.03
2023-03-05T14:26:20.232Z,100369.75
2023-03-05T14:28:52.881Z,100366.91
2023-03-05T14:31:21.829Z,100375.59
2023-03-05T14:33:51.090Z,100362.16
2023-03-05T14:36:25.348Z,100365.63
2023-03-05T14:38:54.807Z,100343.97
2023-03-05T14:41:33.357Z,100345.69
2023-03-05T14:44:02.049Z,100340.19
2023-03-05T14:46:30.313Z,100329.56
2023-03-05T14:48:58.714Z,100327.78
2023-03-05T14:51:28.272Z,100326.47
2023-03-05T14:53:58.710Z,100326.66
2023-03-05T14:56:29.138Z,100312.06
2023-03-05T14:58:58.281Z,100324.34
2023-03-05T15:01:26.479Z,100331.97
2023-03-05T15:03:54.666Z,100327.31
2023-03-05T15:06:29.504Z,100323.72
2023-03-05T15:08:58.967Z,100326.19
2023-03-05T15:11:27.299Z,100320.84
2023-03-05T15:13:55.463Z,100323.34
2023-03-05T15:16:24.391Z,100325.13
2023-03-05T15:18:52.554Z,100318.38
2023-03-05T15:21:20.963Z,100328.91
2023-03-05T15:23:49.150Z,100323.78
2023-03-05T15:26:18.642Z,100315.16
2023-03-05T15:28:46.786Z,100303.03
2023-03-05T15:31:17.431Z,100307.34
2023-03-05T15:33:45.718Z,100293.88
2023-03-05T15:36:14.467Z,100304.56
2023-03-05T15:38:43.163Z,100300.53
2023-03-05T15:41:11.963Z,100303.09
2023-03-05T15:43:41.811Z,100307.97
2023-03-05T15:46:10.070Z,100296.78
2023-03-05T15:48:38.254Z,100291.09
2023-03-05T15:51:08.010Z,100300.31
2023-03-05T15:53:36.148Z,100297.00
2023-03-05T15:56:04.415Z,100297.81
2023-03-05T15:58:32.560Z,100299.03
2023-03-05T16:01:02.047Z,100300.63
2023-03-05T16:03:30.294Z,100297.97
2023-03-05T16:05:58.486Z,100301.91
2023-03-05T16:08:26.838Z,100294.03
2023-03-05T16:10:55.212Z,100292.22
2023-03-05T16:13:23.622Z,100294.03
2023-03-05T16:15:53.101Z,100280.22
2023-03-05T16:18:24.485Z,100296.66
2023-03-05T16:20:53.037Z,100292.41
2023-03-05T16:23:22.533Z,100302.28
2023-03-05T16:25:50.767Z,100305.72
2023-03-05T16:28:19.282Z,100298.84
2023-03-05T16:30:53.786Z,100294.44
2023-03-05T16:33:23.688Z,100293.38
2023-03-05T16:36:14.226Z,100284.34
2023-03-05T16:38:42.603Z,100290.97
2023-03-05T16:41:10.863Z,100295.91
2023-03-05T16:43:39.088Z,100290.59
2023-03-05T16:46:07.269Z,100289.31
2023-03-05T16:48:37.224Z,100287.25
2023-03-05T16:51:06.559Z,100286.25
2023-03-05T16:53:34.799Z,100289.50
2023-03-05T16:56:04.138Z,100276.75
2023-03-05T16:58:33.503Z,100280.13
2023-03-05T17:01:02.457Z,100283.44
2023-03-05T17:03:30.874Z,100271.94
2023-03-05T17:06:00.553Z,100274.50
2023-03-05T17:08:28.703Z,100276.69
2023-03-05T17:10:56.844Z,100275.41
2023-03-05T17:13:25.579Z,100280.84
2023-03-05T17:15:56.356Z,100280.13
2023-03-05T17:18:25.833Z,100279.84
2023-03-05T17:20:54.299Z,100287.81
2023-03-05T17:23:23.975Z,100295.38
2023-03-05T17:25:52.255Z,100300.59
2023-03-05T17:28:20.868Z,100303.38
2023-03-05T17:30:48.973Z,100296.91
2023-03-05T17:33:17.165Z,100302.38
2023-03-05T17:35:47.159Z,100305.09
2023-03-05T17:38:15.660Z,100304.59
2023-03-05T17:40:45.232Z,100303.91
2023-03-05T17:43:13.438Z,100306.28
2023-03-05T17:45:42.014Z,100310.34
2023-03-05T17:48:12.343Z,100315.31
2023-03-05T17:50:41.160Z,100315.59
2023-03-05T17:53:09.644Z,100310.75
2023-03-05T17:55:37.837Z,100315.28
2023-03-05T17:58:07.905Z,100311.00
2023-03-05T18:00:37.315Z,100315.28
2023-03-05T18:03:06.795Z,100315.41
2023-03-05T18:05:35.305Z,100316.06
2023-03-05T18:08:03.757Z,100309.63
2023-03-05T18:10:32.803Z,100303.56
2023-03-05T18:13:00.984Z,100300.63
2023-03-05T18:15:31.179Z,100291.09
2023-03-05T18:17:59.591Z,100299.91
2023-03-05T18:20:31.889Z,100303.09
2023-03-05T18:23:01.480Z,100297.75
2023-03-05T18:25:31.733Z,100294.94
2023-03-05T18:28:00.690Z,100285.81
2023-03-05T18:30:30.309Z,100286.19
2023-03-05T18:32:59.308Z,100291.59
2023-03-05T18:35:29.147Z,100290.00
2023-03-05T18:37:57.909Z,100282.72
2023-03-05T18:40:28.949Z,100288.00
2023-03-05T18:42:57.124Z,100284.38
2023-03-05T18:45:25.513Z,100281.25
2023-03-05T18:47:56.657Z,100293.63
2023-03-05T18:50:27.778Z,100295.25
2023-03-05T18:52:56.369Z,100288.47
2023-03-05T18:55:27.226Z,100289.53
2023-03-05T18:57:55.793Z,100289.81
2023-03-05T19:00:26.327Z,100276.97
2023-03-05T19:02:56.679Z,100290.53
2023-03-05T19:05:27.080Z,100288.00
2023-03-05T19:07:55.784Z,100281.81
2023-03-05T19:10:24.523Z,100276.66
2023-03-05T19:12:57.700Z,100284.50
2023-03-05T19:15:25.894Z,100286.53
2023-03-05T19:17:54.899Z,100282.44
2023-03-05T19:20:24.386Z,100275.03
2023-03-05T19:22:52.559Z,100274.91
2023-03-05T19:25:20.968Z,100282.13
2023-03-05T19:27:49.516Z,100275.41
2023-03-05T19:30:18.282Z,100273.66
2023-03-05T19:32:47.235Z,100269.94
2023-03-05T19:35:16.226Z,100272.09
2023-03-05T19:37:46.047Z,100259.56
2023-03-05T19:40:15.176Z,100267.84
2023-03-05T19:42:43.397Z,100266.06
2023-03-05T19:45:11.943Z,100268.63
2023-03-05T19:47:40.224Z,100272.38
2023-03-05T19:50:09.308Z,100269.22
2023-03-05T19:52:37.511Z,100258.41
2023-03-05T19:55:08.280Z,100258.25
2023-03-05T19:57:36.412Z,100261.47
2023-03-05T20:00:05.156Z,100253.69
2023-03-05T20:02:33.706Z,100253.13
2023-03-05T20:05:02.173Z,100254.88
2023-03-05T20:07:30.389Z,100257.66
2023-03-05T20:09:58.664Z,100249.81
2023-03-05T20:12:28.198Z,100245.28
2023-03-05T20:14:56.340Z,100249.66
2023-03-05T20:17:24.486Z,100240.47
2023-03-05T20:19:55.345Z,100242.44
2023-03-05T20:22:23.487Z,100236.94
2023-03-05T20:24:51.689Z,100246.47
2023-03-05T20:27:19.821Z,100250.50
2023-03-05T20:29:49.363Z,100249.47
2023-03-05T20:32:17.576Z,100249.75
2023-03-05T20:34:45.747Z,100238.28
2023-03-05T20:37:13.881Z,100233.91
2023-03-05T20:39:42.227Z,100232.31
2023-03-05T20:42:10.540Z,100236.03
2023-03-05T20:44:39.032Z,100234.28
2023-03-05T20:47:23.599Z,100230.63
2023-03-05T20:49:55.206Z,100236.31
2023-03-05T20:52:23.462Z,100230.03
2023-03-05T20:54:51.749Z,100226.69
2023-03-05T20:57:19.916Z,100221.81
2023-03-05T20:59:48.112Z,100218.91
2023-03-05T21:02:18.418Z,100211.97
2023-03-05T21:04:46.826Z,100214.94
2023-03-05T21:07:15.058Z,100209.38
2023-03-05T21:09:43.270Z,100209.50
2023-03-05T21:12:11.913Z,100207.81
2023-03-05T21:14:40.798Z,100204.44
2023-03-05T21:17:09.224Z,100201.66
2023-03-05T21:19:39.981Z,100198.81
2023-03-05T21:22:08.222Z,100200.06
2023-03-05T21:24:51.984Z,100193.00
2023-03-05T21:27:20.281Z,100191.22
2023-03-05T21:29:48.531Z,100188.44
2023-03-05T21:32:16.815Z,100186.09
2023-03-05T21:34:46.414Z,100186.75
2023-03-05T21:37:14.601Z,100181.97
2023-03-05T21:39:42.739Z,100185.38
2023-03-05T21:42:11.255Z,100174.72
2023-03-05T21:44:39.691Z,100172.53
2023-03-05T21:47:08.176Z,100172.41
2023-03-05T21:49:36.358Z,100160.25
2023-03-05T21:52:09.309Z,100163.03
2023-03-05T21:54:37.876Z,100161.00
2023-03-05T21:57:07.065Z,100159.09
2023-03-05T21:59:35.314Z,100156.78
2023-03-05T22:02:03.768Z,100152.41
2023-03-05T22:04:31.905Z,100150.00
2023-03-05T22:07:00.116Z,100148.72
2023-03-05T22:09:29.577Z,100149.59
2023-03-05T22:11:57.721Z,100136.28
2023-03-05T22:14:25.991Z,100133.69
2023-03-05T22:16:56.918Z,100137.03
2023-03-05T22:19:25.149Z,100140.63
2023-03-05T22:21:53.287Z,100136.88
2023-03-05T22:24:21.844Z,100132.31
2023-03-05T22:26:51.350Z,100123.66
2023-03-05T22:29:19.496Z,100118.00
2023-03-05T22:31:47.659Z,100116.59
2023-03-05T22:34:16.150Z,100119.88
2023-03-05T22:36:44.366Z,100101.31
2023-03-05T22:39:12.520Z,100099.53
2023-03-05T22:41:41.970Z,100095.72
2023-03-05T22:44:11.465Z,100092.28
2023-03-05T22:46:39.634Z,100093.28
2023-03-05T22:49:07.874Z,100094.91
2023-03-05T22:51:36.008Z,100089.97
2023-03-05T22:54:04.180Z,100086.75
2023-03-05T22:56:32.406Z,100088.88
2023-03-05T22:59:00.583Z,100089.84
2023-03-05T23:01:30.151Z,100079.53
2023-03-05T23:04:03.445Z,100071.56
2023-03-05T23:06:31.779Z,100071.69
2023-03-05T23:09:00.146Z,100068.06
2023-03-05T23:11:28.337Z,100063.59
2023-03-05T23:13:56.475Z,100063.78
2023-03-05T23:16:24.636Z,100059.63
2023-03-05T23:18:54.419Z,100061.78
2023-03-05T23:21:22.552Z,100059.50
2023-03-05T23:23:53.046Z,100055.94
2023-03-05T23:26:21.211Z,100056.84
2023-03-05T23:28:49.352Z,100056.22
2023-03-05T23:31:18.815Z,100052.59
2023-03-05T23:33:47.148Z,100045.88
2023-03-05T23:36:20.227Z,100041.53
2023-03-05T23:38:48.831Z,100041.63
2023-03-05T23:41:17.000Z,100044.13
2023-03-05T23:43:45.267Z,100044.25
2023-03-05T23:46:13.492Z,100045.13
2023-03-05T23:48:42.810Z,100032.66
2023-03-05T23:51:12.001Z,100030.53
2023-03-05T23:53:41.531Z,100029.03
2023-03-05T23:56:10.993Z,100025.97
2023-03-05T23:58:39.573Z,100025.28
